Albany, Georgia
Current Conditions -  °F | °C
As of 5:53 PM on Saturday 20 Dec 2014 (Local Time) from KABY Reporting Station
Overcast Overcast  
Wind Chill: 56°   Ceiling: 5000
Heat Index: 56°   Visibility: 10mi
Dew Point: 51°   Wind: 3mph
Humidity: 84%   Direction: 10°N
Pressure: 30.15"   Gusts: NA
Location:  31.58°N, 84.15°W
Report Text: KABY 202253Z 01003KT 10SM OVC050 13/11 A3015 RMK AO2 SLP209 T01330106
Loading
Personal Weather Stations






























Interactive Weather Map New forecast layout! Learn more

10-Day Weather Forecast

Advertisements
Track Severe Weather on mobile